Time;durP1;ratioP1;P1;durP2;ratioP2;P2;SDS_P1;SDS_P2;PMS_P1;PMS_P2;Temp;Humidity;BMP_temperature;BMP_pressure;BME280_temperature;BME280_humidity;BME280_pressure;Samples;Min_cycle;Max_cycle;Signal;HPM_P1;HPM_P2
2021/04/18 00:01:26;;;;;;;6.43;5.83;;;;;;;7.25;83.38;96634.72;5053067;28;20540;-56
2021/04/18 00:03:51;;;;;;;7.50;6.60;;;;;;;7.49;82.99;96633.34;5052800;28;20210;-54
2021/04/18 00:06:17;;;;;;;6.73;6.23;;;;;;;7.55;82.27;96637.78;5052958;28;20301;-54
2021/04/18 00:08:44;;;;;;;8.00;7.30;;;;;;;7.68;82.17;96629.16;5052962;28;20237;-54
2021/04/18 00:11:10;;;;;;;7.03;6.40;;;;;;;7.72;81.14;96627.75;5052597;28;20507;-56
2021/04/18 00:13:35;;;;;;;6.73;6.13;;;;;;;7.71;80.86;96624.31;5053218;28;21000;-55
2021/04/18 00:16:01;;;;;;;6.97;6.37;;;;;;;7.84;80.37;96626.94;5053385;28;20405;-56
2021/04/18 00:18:26;;;;;;;7.10;6.50;;;;;;;7.86;80.31;96624.91;5052878;28;20196;-56
2021/04/18 00:20:52;;;;;;;7.60;6.90;;;;;;;7.86;80.55;96630.13;5052588;28;20184;-57
2021/04/18 00:23:17;;;;;;;7.13;6.53;;;;;;;7.96;79.91;96620.09;5052968;28;20207;-54
2021/04/18 00:25:42;;;;;;;6.70;6.20;;;;;;;8.02;79.90;96623.69;5052621;28;20236;-56
2021/04/18 00:28:08;;;;;;;6.60;6.00;;;;;;;7.95;79.14;96613.22;5052709;28;20175;-55
2021/04/18 00:30:33;;;;;;;7.60;6.90;;;;;;;7.99;79.86;96616.28;5052113;28;20622;-56
2021/04/18 00:32:59;;;;;;;7.20;6.50;;;;;;;8.10;78.53;96615.63;5052818;28;20715;-56
2021/04/18 00:35:25;;;;;;;7.57;5.10;;;;;;;8.07;78.85;96606.38;5053046;28;20173;-54
2021/04/18 00:37:50;;;;;;;5.27;4.87;;;;;;;8.09;77.66;96616.66;5052450;28;20948;-54
2021/04/18 00:40:19;;;;;;;5.90;5.50;;;;;;;8.04;78.30;96604.16;5052637;28;20198;-54
2021/04/18 00:42:45;;;;;;;5.40;4.90;;;;;;;8.09;78.00;96606.19;5052280;28;20196;-54
2021/04/18 00:45:12;;;;;;;5.13;4.73;;;;;;;8.10;78.04;96600.75;5052651;28;20422;-54
2021/04/18 00:47:46;;;;;;;6.43;5.73;;;;;;;8.18;77.13;96594.50;5052536;28;20858;-56
2021/04/18 00:50:17;;;;;;;6.30;5.73;;;;;;;8.12;76.91;96601.34;5052372;28;20442;-54
2021/04/18 00:52:42;;;;;;;6.30;5.70;;;;;;;8.02;77.23;96603.59;5053030;28;20431;-54
2021/04/18 00:55:08;;;;;;;6.03;5.50;;;;;;;8.02;77.56;96603.59;5052601;28;20904;-56
2021/04/18 00:57:35;;;;;;;6.70;6.00;;;;;;;8.01;77.54;96604.56;5052539;28;20180;-56
2021/04/18 01:00:01;;;;;;;6.37;5.83;;;;;;;8.06;76.63;96601.38;5052452;28;20507;-55
2021/04/18 01:02:27;;;;;;;7.33;6.00;;;;;;;8.07;76.64;96602.97;5052325;28;21003;-56
2021/04/18 01:04:53;;;;;;;6.93;6.37;;;;;;;7.80;78.46;96604.81;5052889;28;20461;-56
2021/04/18 01:07:18;;;;;;;6.43;5.93;;;;;;;7.88;78.25;96601.97;5052170;28;20519;-54
2021/04/18 01:09:44;;;;;;;7.13;6.50;;;;;;;7.92;77.63;96607.59;5052224;28;20285;-55
2021/04/18 01:12:10;;;;;;;6.40;5.80;;;;;;;7.86;79.01;96601.38;5030444;28;20177;-54
2021/04/18 01:14:35;;;;;;;6.17;5.67;;;;;;;7.84;78.87;96598.16;5046731;28;20181;-55
2021/04/18 01:17:00;;;;;;;7.07;6.47;;;;;;;7.94;77.95;96597.75;5052234;28;20694;-57
2021/04/18 01:19:26;;;;;;;7.40;6.70;;;;;;;7.80;78.36;96598.75;5052279;28;20204;-54
2021/04/18 01:21:51;;;;;;;7.20;6.60;;;;;;;7.78;78.96;96592.94;5052603;28;20175;-54
2021/04/18 01:24:17;;;;;;;8.03;7.33;;;;;;;7.75;78.92;96594.16;5052470;28;20688;-56
2021/04/18 01:26:43;;;;;;;7.37;6.60;;;;;;;7.87;78.55;96592.53;5052023;28;20188;-54
2021/04/18 01:29:09;;;;;;;7.33;6.73;;;;;;;7.87;78.28;96581.25;5053665;28;20231;-55
2021/04/18 01:31:34;;;;;;;7.60;6.90;;;;;;;7.76;79.60;96589.69;5055697;28;20920;-56
2021/04/18 01:34:00;;;;;;;7.10;6.53;;;;;;;7.86;78.33;96587.50;5056229;28;20168;-54
2021/04/18 01:36:26;;;;;;;7.13;6.53;;;;;;;7.87;78.09;96582.06;5055888;28;20586;-54
2021/04/18 01:38:53;;;;;;;7.50;6.80;;;;;;;7.85;78.79;96578.84;5055528;28;20718;-56
2021/04/18 01:41:19;;;;;;;7.77;7.07;;;;;;;7.83;78.00;96580.84;5055188;28;20434;-56
2021/04/18 01:43:45;;;;;;;7.17;6.63;;;;;;;7.88;78.41;96581.03;5055281;28;20512;-54
2021/04/18 01:46:11;;;;;;;6.67;6.17;;;;;;;7.89;77.69;96564.34;5055979;28;20406;-54
2021/04/18 01:48:37;;;;;;;7.00;6.27;;;;;;;7.86;78.26;96574.41;5055167;28;20528;-56
2021/04/18 01:51:07;;;;;;;7.40;6.73;;;;;;;7.89;77.53;96574.00;5055379;28;20178;-54
2021/04/18 01:53:34;;;;;;;8.33;7.63;;;;;;;7.86;77.75;96579.66;5055967;28;20409;-55
2021/04/18 01:56:00;;;;;;;7.50;6.90;;;;;;;7.80;77.86;96575.22;5055702;28;20428;-54
2021/04/18 01:58:26;;;;;;;7.50;6.90;;;;;;;7.56;80.21;96576.63;5054599;28;20448;-54
2021/04/18 02:00:51;;;;;;;8.30;7.60;;;;;;;7.43;80.57;96573.25;5055514;28;20451;-54
2021/04/18 02:03:17;;;;;;;7.20;6.57;;;;;;;7.42;80.07;96563.75;5055447;28;20547;-54
2021/04/18 02:05:42;;;;;;;8.77;8.07;;;;;;;7.56;79.65;96574.03;5055748;28;20165;-54
2021/04/18 02:08:08;;;;;;;9.43;7.80;;;;;;;7.51;80.14;96567.78;5054955;28;20244;-56
2021/04/18 02:10:33;;;;;;;7.93;7.23;;;;;;;7.63;79.65;96566.97;5055877;28;20187;-54
2021/04/18 02:12:58;;;;;;;9.17;8.23;;;;;;;7.75;78.84;96570.63;5055098;28;20180;-54
2021/04/18 02:15:24;;;;;;;8.30;7.50;;;;;;;7.72;79.51;96567.59;5055196;28;20710;-54
2021/04/18 02:17:49;;;;;;;8.20;7.50;;;;;;;7.71;79.50;96573.81;5033281;28;20187;-54
2021/04/18 02:20:16;;;;;;;9.77;7.80;;;;;;;7.71;79.48;96561.56;5042980;28;20220;-55
2021/04/18 02:22:44;;;;;;;7.83;7.33;;;;;;;7.75;79.17;96570.63;5055213;28;20223;-55
2021/04/18 02:25:10;;;;;;;8.87;7.80;;;;;;;7.80;79.08;96568.19;5055175;28;20489;-54
2021/04/18 02:27:36;;;;;;;8.47;7.60;;;;;;;7.81;78.81;96563.78;5054484;28;20455;-56
2021/04/18 02:30:03;;;;;;;9.57;8.70;;;;;;;7.79;78.87;96563.94;5055061;28;20509;-56
2021/04/18 02:32:28;;;;;;;7.97;7.33;;;;;;;7.65;79.31;96562.34;5054946;28;20191;-54
2021/04/18 02:34:54;;;;;;;9.73;7.87;;;;;;;7.73;79.56;96567.41;5055119;28;20778;-55
2021/04/18 02:37:19;;;;;;;8.80;7.90;;;;;;;7.74;78.60;96571.59;5054733;28;20516;-54
2021/04/18 02:39:45;;;;;;;9.23;8.43;;;;;;;7.78;78.66;96569.38;5053955;28;20286;-56
2021/04/18 02:42:10;;;;;;;8.67;7.87;;;;;;;7.79;78.80;96571.78;5032870;28;20670;-55
2021/04/18 02:44:36;;;;;;;8.90;8.20;;;;;;;7.77;78.65;96573.03;5035574;28;20376;-54
2021/04/18 02:47:02;;;;;;;7.70;7.00;;;;;;;7.65;79.77;96575.44;5036895;28;20187;-55
2021/04/18 02:49:28;;;;;;;8.60;7.90;;;;;;;7.56;79.29;96581.88;5054688;28;20200;-54
2021/04/18 02:51:53;;;;;;;9.80;8.83;;;;;;;7.41;80.62;96576.03;5054819;28;20886;-56
2021/04/18 02:54:19;;;;;;;7.93;7.23;;;;;;;7.56;79.81;96581.06;5054179;28;20180;-56
2021/04/18 02:56:44;;;;;;;8.50;7.80;;;;;;;7.51;80.16;96579.06;5054399;28;20570;-55
2021/04/18 02:59:10;;;;;;;8.37;7.60;;;;;;;7.45;80.78;96577.25;5054229;28;20188;-55
2021/04/18 03:01:36;;;;;;;8.20;7.60;;;;;;;7.63;79.75;96571.41;5054628;28;20171;-54
2021/04/18 03:04:02;;;;;;;9.73;8.73;;;;;;;7.71;79.41;96568.59;5036666;28;20245;-54
2021/04/18 03:06:28;;;;;;;8.60;7.90;;;;;;;7.58;79.80;96571.22;5054503;28;20809;-55
2021/04/18 03:08:53;;;;;;;9.67;8.77;;;;;;;7.62;80.19;96567.19;5053576;28;20445;-55
2021/04/18 03:11:19;;;;;;;9.47;8.63;;;;;;;7.71;79.41;96568.59;5054159;28;20314;-54
2021/04/18 03:13:45;;;;;;;9.13;8.27;;;;;;;7.68;80.01;96564.56;5036418;28;20215;-54
2021/04/18 03:16:11;;;;;;;9.53;8.63;;;;;;;7.74;79.64;96566.38;5054455;28;20177;-55
2021/04/18 03:18:36;;;;;;;8.20;7.50;;;;;;;7.71;79.80;96568.59;5053335;28;20535;-56
2021/04/18 03:21:02;;;;;;;9.30;7.90;;;;;;;7.68;79.54;96559.31;5053719;28;20174;-54
2021/04/18 03:23:28;;;;;;;9.00;8.30;;;;;;;7.62;79.92;96564.56;5053947;28;20262;-56
2021/04/18 03:25:53;;;;;;;9.10;8.30;;;;;;;7.71;78.74;96569.41;5054018;28;20829;-54
2021/04/18 03:28:18;;;;;;;8.87;8.17;;;;;;;7.73;79.30;96566.59;5053561;28;20172;-55
2021/04/18 03:30:44;;;;;;;9.57;8.87;;;;;;;7.61;78.78;96568.22;5053857;28;20165;-56
2021/04/18 03:33:09;;;;;;;9.57;8.77;;;;;;;7.63;79.43;96572.22;5053682;28;20208;-54
2021/04/18 03:35:35;;;;;;;9.53;8.73;;;;;;;7.69;78.83;96563.56;5053473;28;20176;-54
2021/04/18 03:38:02;;;;;;;9.37;8.47;;;;;;;7.69;78.79;96560.97;5053615;28;20172;-54
2021/04/18 03:40:28;;;;;;;9.30;8.40;;;;;;;7.69;79.23;96560.16;5053682;28;20202;-54
2021/04/18 03:42:53;;;;;;;8.63;7.97;;;;;;;7.77;78.63;96565.19;5053171;28;20458;-54
2021/04/18 03:45:18;;;;;;;9.80;9.00;;;;;;;7.73;78.67;96562.16;5053475;28;20187;-54
2021/04/18 03:47:44;;;;;;;9.93;8.60;;;;;;;7.78;78.61;96558.94;5053373;28;20205;-56
2021/04/18 03:50:11;;;;;;;11.60;9.30;;;;;;;7.78;78.55;96562.34;5053216;28;20195;-54
2021/04/18 03:52:36;;;;;;;8.80;8.10;;;;;;;7.84;78.11;96564.16;5053272;28;20173;-54
2021/04/18 03:55:02;;;;;;;9.17;8.27;;;;;;;7.81;77.84;96553.31;5053533;28;20430;-54
2021/04/18 03:57:27;;;;;;;8.90;8.20;;;;;;;7.82;77.65;96555.72;5053158;28;20627;-54
2021/04/18 03:59:53;;;;;;;9.13;8.37;;;;;;;7.82;78.09;96562.75;5053083;28;20443;-56
2021/04/18 04:02:19;;;;;;;10.30;9.30;;;;;;;7.81;77.83;96561.94;5053159;28;20203;-54
2021/04/18 04:04:44;;;;;;;9.73;8.80;;;;;;;7.85;78.10;96550.06;5053540;28;20174;-54
2021/04/18 04:07:09;;;;;;;8.27;7.63;;;;;;;7.89;77.26;96556.50;5052947;28;20174;-56
2021/04/18 04:09:35;;;;;;;9.70;8.77;;;;;;;7.92;77.55;96557.91;5053588;28;20196;-54
2021/04/18 04:12:00;;;;;;;8.90;8.10;;;;;;;7.94;77.50;96561.13;5053340;28;20169;-56
2021/04/18 04:14:26;;;;;;;9.33;8.40;;;;;;;7.97;76.85;96561.50;5052926;28;20178;-54
2021/04/18 04:16:51;;;;;;;9.23;8.33;;;;;;;7.91;77.47;96556.31;5034750;28;20222;-57
2021/04/18 04:19:16;;;;;;;8.20;7.57;;;;;;;7.83;77.14;96553.88;5052906;28;20241;-54
2021/04/18 04:21:42;;;;;;;10.17;9.17;;;;;;;7.85;77.84;96557.09;5053850;28;20197;-54
2021/04/18 04:24:08;;;;;;;9.63;8.70;;;;;;;7.85;77.65;96557.91;5052850;28;20203;-56
2021/04/18 04:26:33;;;;;;;9.17;8.47;;;;;;;7.89;77.42;96563.53;5053087;28;20181;-54
2021/04/18 04:28:59;;;;;;;8.17;7.47;;;;;;;7.87;77.54;96558.53;5052796;28;20240;-54
2021/04/18 04:31:25;;;;;;;9.17;8.43;;;;;;;7.92;77.77;96560.50;5052662;28;20234;-53
2021/04/18 04:33:50;;;;;;;9.90;9.00;;;;;;;7.87;77.97;96568.97;5052921;28;20568;-54
2021/04/18 04:36:15;;;;;;;10.53;8.83;;;;;;;7.85;77.97;96570.19;5053060;28;20197;-56
2021/04/18 04:38:41;;;;;;;10.13;9.13;;;;;;;7.96;78.08;96570.38;5052373;28;20284;-54
2021/04/18 04:41:06;;;;;;;9.70;8.90;;;;;;;8.06;77.67;96575.19;5053128;28;20200;-55
2021/04/18 04:43:33;;;;;;;9.93;8.93;;;;;;;8.07;77.29;96574.19;5052876;28;20679;-56
2021/04/18 04:45:58;;;;;;;9.77;8.87;;;;;;;8.06;77.74;96572.59;5053103;28;20579;-55
2021/04/18 04:48:24;;;;;;;8.97;8.17;;;;;;;8.08;77.20;96579.19;5052275;28;20428;-56
2021/04/18 04:50:49;;;;;;;9.90;8.97;;;;;;;8.01;77.11;96581.03;5052552;28;20223;-56
2021/04/18 04:53:14;;;;;;;9.27;8.57;;;;;;;8.00;77.77;96582.06;5052571;28;20547;-53
2021/04/18 04:55:42;;;;;;;10.90;9.90;;;;;;;8.08;76.78;96576.59;5052982;28;20174;-56
2021/04/18 04:58:07;;;;;;;12.43;10.10;;;;;;;8.04;77.28;96585.06;5052486;28;20517;-56
2021/04/18 05:00:33;;;;;;;11.30;10.10;;;;;;;8.02;77.39;96584.47;5052677;28;20483;-54
2021/04/18 05:02:58;;;;;;;11.00;10.10;;;;;;;7.83;78.52;96588.69;5052866;28;20200;-55
2021/04/18 05:05:24;;;;;;;10.70;9.67;;;;;;;7.77;79.18;96584.28;5056686;28;20602;-54
2021/04/18 05:07:49;;;;;;;11.60;10.47;;;;;;;7.85;78.33;96586.69;5056117;28;20186;-54
2021/04/18 05:10:14;;;;;;;10.77;9.77;;;;;;;7.62;79.98;96586.31;5056537;28;20189;-56
2021/04/18 05:12:40;;;;;;;11.50;10.40;;;;;;;7.77;79.36;96589.50;5056203;28;20225;-54
2021/04/18 05:15:06;;;;;;;10.73;9.93;;;;;;;7.89;78.64;96587.09;5056657;28;20192;-56
2021/04/18 05:17:31;;;;;;;11.47;10.37;;;;;;;7.82;78.77;96588.91;5056254;28;20179;-54
2021/04/18 05:19:57;;;;;;;10.97;9.97;;;;;;;7.92;78.47;96590.09;5055806;28;20460;-57
2021/04/18 05:22:22;;;;;;;12.70;11.40;;;;;;;7.98;78.13;96589.28;5056268;28;20197;-56
2021/04/18 05:24:47;;;;;;;11.50;10.50;;;;;;;7.86;79.20;96585.66;5056477;28;20170;-57
2021/04/18 05:27:13;;;;;;;11.50;10.40;;;;;;;7.84;78.85;96594.75;5055214;28;20521;-58
2021/04/18 05:29:38;;;;;;;10.93;9.83;;;;;;;7.76;79.02;96600.97;5056204;28;20206;-55
2021/04/18 05:32:04;;;;;;;11.90;10.70;;;;;;;7.81;79.14;96597.78;5038260;28;20213;-57
2021/04/18 05:34:29;;;;;;;12.27;11.07;;;;;;;7.94;79.13;96602.97;5056339;28;20186;-56
2021/04/18 05:36:55;;;;;;;10.90;9.80;;;;;;;7.88;78.55;96601.97;5055861;28;20206;-56
2021/04/18 05:39:20;;;;;;;10.67;9.67;;;;;;;7.96;78.38;96607.00;5055972;28;20613;-56
2021/04/18 05:41:46;;;;;;;10.47;9.50;;;;;;;8.06;77.75;96604.75;5055327;28;20178;-56
2021/04/18 05:44:14;;;;;;;10.40;9.50;;;;;;;8.05;78.33;96608.41;5056077;28;20197;-55
2021/04/18 05:46:43;;;;;;;11.00;9.90;;;;;;;8.04;77.28;96606.78;5056096;28;20230;-55
2021/04/18 05:49:09;;;;;;;10.53;9.43;;;;;;;7.96;78.07;96608.81;5055432;28;20535;-58
2021/04/18 05:51:35;;;;;;;10.70;9.70;;;;;;;8.04;78.86;96609.38;5056098;28;20407;-55
2021/04/18 05:54:00;;;;;;;10.73;9.80;;;;;;;8.12;77.71;96609.19;5056001;28;20532;-56
2021/04/18 05:56:26;;;;;;;10.93;9.93;;;;;;;8.22;77.71;96612.19;5055386;28;20230;-58
2021/04/18 05:58:52;;;;;;;12.13;11.10;;;;;;;8.22;77.40;96609.56;5037083;28;20273;-55
2021/04/18 06:01:23;;;;;;;11.20;10.10;;;;;;;8.25;77.44;96608.38;5055813;28;20465;-56
2021/04/18 06:03:50;;;;;;;10.17;9.10;;;;;;;8.20;77.82;96614.22;5055789;28;20249;-56
2021/04/18 06:06:15;;;;;;;10.27;9.37;;;;;;;8.03;78.45;96615.66;5055630;28;20480;-57
2021/04/18 06:08:41;;;;;;;9.43;8.53;;;;;;;8.13;77.35;96610.78;5054668;28;20929;-55
2021/04/18 06:11:07;;;;;;;9.33;8.43;;;;;;;8.19;77.41;96607.38;5055515;28;20178;-55
2021/04/18 06:13:33;;;;;;;10.33;9.47;;;;;;;8.14;77.48;96608.97;5055250;28;20229;-57
2021/04/18 06:15:58;;;;;;;9.63;8.70;;;;;;;8.07;77.51;96616.03;5054876;28;20416;-58
2021/04/18 06:18:24;;;;;;;10.20;9.07;;;;;;;8.18;77.21;96611.00;5036855;28;20263;-56
2021/04/18 06:20:49;;;;;;;9.63;8.80;;;;;;;8.19;77.13;96611.78;5055212;28;20178;-55
2021/04/18 06:23:14;;;;;;;10.23;9.33;;;;;;;8.20;76.93;96616.84;5037359;28;20607;-57
2021/04/18 06:25:39;;;;;;;10.60;9.60;;;;;;;8.17;76.14;96609.38;5055315;28;20583;-55
2021/04/18 06:28:05;;;;;;;10.50;9.50;;;;;;;8.04;77.03;96612.00;5054754;28;20199;-57
2021/04/18 06:30:30;;;;;;;11.27;10.27;;;;;;;7.88;78.24;96614.25;5055324;28;20181;-55
2021/04/18 06:32:55;;;;;;;10.73;9.67;;;;;;;7.54;80.17;96610.03;5054805;28;20176;-57
2021/04/18 06:35:21;;;;;;;10.73;9.70;;;;;;;7.82;80.44;96609.81;5054719;28;20697;-59
2021/04/18 06:37:46;;;;;;;10.43;9.60;;;;;;;7.99;79.64;96613.66;5054644;28;20178;-58
2021/04/18 06:40:13;;;;;;;10.30;9.40;;;;;;;8.16;79.13;96618.25;5054531;28;20217;-57
2021/04/18 06:42:39;;;;;;;10.17;9.27;;;;;;;7.97;77.81;96615.66;5055027;28;20555;-55
2021/04/18 06:45:07;;;;;;;11.30;10.30;;;;;;;8.15;77.75;96616.63;5055058;28;20405;-58
2021/04/18 06:47:35;;;;;;;11.70;9.33;;;;;;;8.20;76.90;96614.22;5054589;28;20208;-56
2021/04/18 06:50:01;;;;;;;12.00;10.80;;;;;;;8.35;77.42;96613.22;5054421;28;20844;-56
2021/04/18 06:52:26;;;;;;;11.17;9.93;;;;;;;8.37;77.40;96611.97;5036876;28;20407;-57
2021/04/18 06:54:52;;;;;;;10.83;9.73;;;;;;;8.44;76.25;96610.16;5054421;28;20428;-57
2021/04/18 06:57:17;;;;;;;11.03;9.93;;;;;;;8.11;76.21;96615.44;5054391;28;20175;-56
2021/04/18 06:59:42;;;;;;;10.50;9.40;;;;;;;7.73;78.84;96613.66;5054437;28;20268;-57
2021/04/18 07:02:22;;;;;;;9.90;8.90;;;;;;;7.80;77.86;96614.44;5054459;28;20170;-55
2021/04/18 07:05:02;;;;;;;10.30;9.30;;;;;;;7.76;79.12;96611.44;5054290;28;20186;-55
2021/04/18 07:07:31;;;;;;;12.10;11.00;;;;;;;7.79;80.60;96613.63;5053135;28;20468;-58
2021/04/18 07:09:57;;;;;;;12.50;11.20;;;;;;;8.07;80.59;96616.84;5053913;28;20452;-58
2021/04/18 07:12:31;;;;;;;12.63;11.20;;;;;;;8.41;78.41;96612.41;5054431;28;20412;-57
2021/04/18 07:14:58;;;;;;;11.37;10.37;;;;;;;8.51;77.79;96610.94;5054622;28;20873;-57
2021/04/18 07:17:24;;;;;;;12.30;10.17;;;;;;;8.62;77.28;96609.50;5053459;28;20572;-56
2021/04/18 07:20:06;;;;;;;11.30;10.17;;;;;;;8.80;76.77;96609.63;5054086;28;20453;-58
2021/04/18 07:22:31;;;;;;;12.13;11.00;;;;;;;9.08;75.66;96610.91;5054303;28;20526;-56
2021/04/18 07:25:01;;;;;;;11.50;10.40;;;;;;;9.11;74.46;96602.59;5053722;28;20456;-56
2021/04/18 07:28:02;;;;;;;13.73;12.40;;;;;;;9.10;74.87;96605.44;5053020;28;20167;-56
2021/04/18 07:30:46;;;;;;;11.40;10.20;;;;;;;9.13;73.31;96599.81;4992331;28;20452;-55
2021/04/18 07:33:11;;;;;;;12.20;10.77;;;;;;;9.26;73.35;96608.38;5030438;28;20423;-57
2021/04/18 07:35:39;;;;;;;12.10;10.90;;;;;;;8.99;75.90;96604.28;5034156;28;20423;-57
2021/04/18 07:38:18;;;;;;;14.90;10.23;;;;;;;9.06;75.24;96601.63;5034774;28;20176;-58
2021/04/18 07:40:45;;;;;;;11.20;10.10;;;;;;;9.13;73.52;96608.44;5053524;28;20419;-56
2021/04/18 07:43:11;;;;;;;11.50;10.30;;;;;;;9.39;73.66;96604.88;5053777;28;20443;-56
2021/04/18 07:45:38;;;;;;;11.50;10.30;;;;;;;9.55;72.39;96606.97;5053212;28;20430;-57
2021/04/18 07:48:08;;;;;;;10.60;9.60;;;;;;;9.55;71.40;96608.81;5053208;28;20411;-58
2021/04/18 07:50:35;;;;;;;10.40;9.30;;;;;;;9.54;71.59;96610.63;5053656;28;20414;-57
2021/04/18 07:53:02;;;;;;;11.17;9.70;;;;;;;9.60;71.64;96612.38;5035630;28;20995;-59
2021/04/18 07:55:30;;;;;;;10.73;9.63;;;;;;;9.47;72.06;96603.81;5053388;28;20434;-58
2021/04/18 07:57:56;;;;;;;10.03;8.90;;;;;;;9.43;72.57;96607.88;5052864;28;20517;-58
2021/04/18 08:00:22;;;;;;;10.07;9.07;;;;;;;9.51;69.71;96605.78;5053293;28;20523;-57
2021/04/18 08:02:50;;;;;;;10.00;9.00;;;;;;;9.56;69.35;96610.41;5052865;28;20724;-57
2021/04/18 08:05:18;;;;;;;10.27;9.27;;;;;;;9.73;69.52;96604.41;5053371;28;20423;-58
2021/04/18 08:08:02;;;;;;;10.00;9.10;;;;;;;9.79;70.57;96608.00;5052839;28;20427;-55
2021/04/18 08:10:41;;;;;;;11.13;9.13;;;;;;;9.78;70.19;96612.47;5052733;28;20432;-58
2021/04/18 08:13:10;;;;;;;10.60;9.60;;;;;;;9.89;68.74;96608.34;5053260;28;20434;-56
2021/04/18 08:15:53;;;;;;;10.33;9.30;;;;;;;9.65;71.07;96603.88;5052760;28;20429;-58
2021/04/18 08:18:29;;;;;;;9.70;8.70;;;;;;;9.54;70.66;96607.19;5033789;28;20432;-59
2021/04/18 08:20:55;;;;;;;10.53;9.63;;;;;;;9.71;70.18;96611.69;5051905;28;20881;-58
2021/04/18 08:23:22;;;;;;;11.37;9.33;;;;;;;9.85;70.31;96605.34;5052609;28;20458;-58
2021/04/18 08:26:08;;;;;;;11.27;9.50;;;;;;;9.77;69.99;96616.09;5052785;28;20437;-55
2021/04/18 08:28:51;;;;;;;9.47;8.57;;;;;;;9.89;67.94;96611.75;5052672;28;20510;-57
2021/04/18 08:31:18;;;;;;;10.30;9.10;;;;;;;10.02;68.02;96606.38;5053002;28;20411;-57
2021/04/18 08:33:46;;;;;;;9.17;8.27;;;;;;;9.38;71.59;96618.19;5052485;28;20437;-56
2021/04/18 08:36:11;;;;;;;7.40;6.70;;;;;;;9.34;69.81;96618.63;5053186;28;20461;-55
2021/04/18 08:38:37;;;;;;;9.10;7.60;;;;;;;9.47;70.46;96624.78;5053677;28;20862;-55
2021/04/18 08:41:06;;;;;;;9.70;8.13;;;;;;;9.70;69.68;96611.91;5057321;28;20180;-61
2021/04/18 08:43:32;;;;;;;7.50;6.70;;;;;;;9.70;70.13;96612.72;5057282;28;20186;-59
2021/04/18 08:45:58;;;;;;;8.90;7.27;;;;;;;9.79;69.99;96618.50;5057022;28;20482;-57
2021/04/18 08:48:24;;;;;;;8.60;7.63;;;;;;;9.79;70.98;96621.94;5056305;28;20446;-59
2021/04/18 08:50:56;;;;;;;9.23;8.23;;;;;;;9.92;67.91;96615.78;5057248;28;20193;-58
2021/04/18 08:53:22;;;;;;;8.73;7.83;;;;;;;9.74;68.21;96621.78;5056447;28;20452;-59
2021/04/18 08:56:04;;;;;;;8.80;8.00;;;;;;;9.68;70.88;96624.44;5056949;28;20415;-58
2021/04/18 08:58:33;;;;;;;9.80;8.47;;;;;;;9.45;72.66;96619.75;5056371;28;20425;-56
2021/04/18 09:01:07;;;;;;;9.47;8.53;;;;;;;9.81;70.57;96621.72;5056765;28;20409;-57
2021/04/18 09:03:33;;;;;;;9.53;8.40;;;;;;;10.17;68.03;96621.84;5056283;28;20482;-58
2021/04/18 09:06:19;;;;;;;9.50;8.60;;;;;;;10.36;67.95;96626.09;5056828;28;20760;-56
2021/04/18 09:08:49;;;;;;;8.70;7.80;;;;;;;10.47;66.96;96621.94;5056040;28;20198;-55
2021/04/18 09:11:15;;;;;;;9.17;8.23;;;;;;;10.59;65.84;96630.69;5056529;28;20750;-58
2021/04/18 09:13:59;;;;;;;8.90;7.90;;;;;;;10.69;64.94;96623.91;5056784;28;20404;-55
2021/04/18 09:16:36;;;;;;;8.57;7.70;;;;;;;10.82;64.19;96626.41;5036703;28;20225;-55
2021/04/18 09:19:21;;;;;;;9.13;8.30;;;;;;;10.73;65.95;96629.53;5049459;28;20461;-59
2021/04/18 09:22:05;;;;;;;10.30;8.33;;;;;;;10.87;65.70;96623.91;5056041;28;20423;-57
2021/04/18 09:24:32;;;;;;;12.43;7.70;;;;;;;10.90;62.67;96625.28;5056178;28;20826;-59
2021/04/18 09:27:21;;;;;;;9.67;8.67;;;;;;;10.89;62.81;96627.13;5056197;28;20496;-56
2021/04/18 09:29:52;;;;;;;8.90;8.10;;;;;;;9.96;64.07;96624.84;5055369;28;20469;-56
2021/04/18 09:32:32;;;;;;;9.20;8.30;;;;;;;10.16;64.69;96625.50;5055675;28;20429;-57
2021/04/18 09:34:58;;;;;;;9.10;8.20;;;;;;;10.38;66.28;96623.25;5055960;28;20423;-58
2021/04/18 09:37:27;;;;;;;13.50;8.23;;;;;;;10.57;66.36;96627.50;5051643;28;20475;-56
2021/04/18 09:39:58;;;;;;;9.20;8.30;;;;;;;10.73;64.51;96626.91;5052223;28;20202;-57
2021/04/18 09:42:28;;;;;;;9.77;8.13;;;;;;;10.97;63.69;96629.47;5051305;28;20514;-58
2021/04/18 09:45:15;;;;;;;9.90;7.80;;;;;;;10.98;62.90;96625.00;5052238;28;20433;-56
2021/04/18 09:47:42;;;;;;;10.23;7.50;;;;;;;10.98;62.65;96620.53;5033564;28;20788;-58
2021/04/18 09:50:34;;;;;;;9.03;8.13;;;;;;;10.80;62.08;96627.63;5051570;28;20473;-58
2021/04/18 09:53:13;;;;;;;8.93;8.03;;;;;;;10.91;61.98;96629.53;5052320;28;20417;-58
2021/04/18 09:55:53;;;;;;;8.83;7.77;;;;;;;11.17;61.17;96629.19;5051994;28;20457;-59
2021/04/18 09:58:30;;;;;;;11.13;8.83;;;;;;;10.99;60.61;96629.22;5051481;28;20499;-58
2021/04/18 10:01:02;;;;;;;9.13;8.00;;;;;;;10.45;62.24;96629.25;5046698;28;20429;-56
2021/04/18 10:03:41;;;;;;;9.73;8.73;;;;;;;9.67;63.88;96628.09;5052159;28;20519;-58
2021/04/18 10:06:07;;;;;;;11.20;8.60;;;;;;;9.77;64.43;96636.28;5052363;28;20468;-58
2021/04/18 10:08:37;;;;;;;9.30;8.30;;;;;;;10.01;63.68;96638.91;5051593;28;21028;-56
2021/04/18 10:11:06;;;;;;;9.13;8.23;;;;;;;10.01;63.90;96631.03;5051706;28;20495;-57
2021/04/18 10:13:45;;;;;;;8.90;8.00;;;;;;;10.18;65.78;96632.13;5051146;28;20982;-58
2021/04/18 10:16:13;;;;;;;9.97;8.47;;;;;;;10.03;65.05;96625.56;5051924;28;20417;-56
2021/04/18 10:19:00;;;;;;;9.50;8.20;;;;;;;10.28;63.34;96631.63;5051326;28;20429;-56
2021/04/18 10:21:26;;;;;;;9.70;8.27;;;;;;;10.59;63.27;96633.34;5040087;28;20433;-57
2021/04/18 10:23:52;;;;;;;9.00;8.20;;;;;;;10.78;63.07;96624.44;5051294;28;20456;-55
2021/04/18 10:26:19;;;;;;;9.97;8.93;;;;;;;10.82;62.64;96628.22;5052049;28;20410;-57
2021/04/18 10:28:46;;;;;;;8.80;7.90;;;;;;;11.10;61.31;96623.22;5050774;28;20206;-56
2021/04/18 10:31:12;;;;;;;8.90;7.90;;;;;;;11.16;60.54;96617.09;5049824;28;20418;-57
2021/04/18 10:33:39;;;;;;;8.97;7.80;;;;;;;11.41;59.84;96617.75;5050596;28;20406;-58
2021/04/18 10:36:05;;;;;;;9.33;8.13;;;;;;;11.34;59.18;96615.19;5028877;28;20442;-56
2021/04/18 10:38:30;;;;;;;11.80;9.83;;;;;;;11.19;58.30;96621.91;5045808;28;20198;-55
2021/04/18 10:40:56;;;;;;;12.17;9.70;;;;;;;11.31;60.46;96612.22;5050811;28;20783;-59
2021/04/18 10:43:21;;;;;;;13.67;9.60;;;;;;;11.33;60.85;96613.59;5050344;28;20575;-58
2021/04/18 10:45:47;;;;;;;9.43;8.50;;;;;;;11.52;59.11;96603.00;5049847;28;20229;-57
2021/04/18 10:48:12;;;;;;;9.73;8.83;;;;;;;11.77;58.16;96601.03;5048999;28;20657;-57
2021/04/18 10:50:37;;;;;;;11.20;8.07;;;;;;;11.93;58.03;96603.00;5050041;28;20192;-58
2021/04/18 10:53:06;;;;;;;9.40;8.40;;;;;;;11.89;58.87;96605.28;5050781;28;20175;-58
2021/04/18 10:55:31;;;;;;;10.80;9.70;;;;;;;12.01;57.67;96611.34;5049881;28;20674;-56
2021/04/18 10:57:56;;;;;;;10.80;9.63;;;;;;;12.19;56.95;96608.63;5050002;28;20421;-58
2021/04/18 11:00:22;;;;;;;10.43;9.30;;;;;;;12.29;56.45;96603.59;5048795;28;20210;-58
2021/04/18 11:02:49;;;;;;;8.63;7.80;;;;;;;12.41;56.38;96600.91;5049985;28;20203;-58
2021/04/18 11:05:15;;;;;;;10.47;9.47;;;;;;;12.23;56.97;96596.59;5050706;28;20647;-57
2021/04/18 11:07:41;;;;;;;9.00;8.20;;;;;;;12.12;59.15;96596.59;5050471;28;20422;-57
2021/04/18 11:10:07;;;;;;;10.27;9.20;;;;;;;12.31;57.20;96600.72;5032351;28;20458;-55
2021/04/18 11:12:36;;;;;;;10.80;9.57;;;;;;;12.27;56.44;96602.19;5050309;28;20167;-59
2021/04/18 11:15:03;;;;;;;13.83;9.43;;;;;;;12.40;55.76;96600.16;5038391;28;20439;-58
2021/04/18 11:17:28;;;;;;;10.60;9.53;;;;;;;12.30;56.16;96602.53;5049906;28;20418;-58
2021/04/18 11:19:54;;;;;;;10.93;9.13;;;;;;;11.97;55.39;96612.88;5050551;28;20893;-56
2021/04/18 11:22:20;;;;;;;10.60;8.23;;;;;;;11.68;56.97;96597.94;5019062;28;20195;-57
2021/04/18 11:24:46;;;;;;;9.53;8.63;;;;;;;11.98;57.08;96601.28;5040001;28;20604;-57
2021/04/18 11:27:11;;;;;;;9.37;8.47;;;;;;;12.05;55.85;96599.34;5049607;28;20492;-56
2021/04/18 11:29:42;;;;;;;10.50;9.37;;;;;;;12.32;56.24;96600.47;5049768;28;20697;-56
2021/04/18 11:32:08;;;;;;;9.90;8.90;;;;;;;12.41;55.06;96601.72;5050449;28;20175;-56
2021/04/18 11:34:34;;;;;;;9.20;8.30;;;;;;;12.51;54.65;96598.53;5032602;28;20417;-57
2021/04/18 11:36:59;;;;;;;8.90;8.00;;;;;;;12.30;55.52;96607.81;5027849;28;20427;-57
2021/04/18 11:39:27;;;;;;;10.17;9.17;;;;;;;12.56;54.60;96595.97;5030520;28;20188;-56